TimePST,TemperatureF,Dew PointF,Humidity,Sea Level PressureIn,VisibilityMPH,Wind Direction,Wind SpeedMPH,Gust SpeedMPH,PrecipitationIn,Events,Conditions,WindDirDegrees,DateUTC
12:58 AM,33.6,31.1,90,29.96,10.0,NE,10.4,-,N/A,,Partly Cloudy,40,2013-02-07 08:58:00
1:58 AM,32.7,30.6,92,29.96,10.0,NE,8.1,-,N/A,,Mostly Cloudy,50,2013-02-07 09:58:00
2:58 AM,32.0,30.0,92,29.88,10.0,ENE,9.2,-,N/A,,Scattered Clouds,60,2013-02-07 10:58:00
2:59 AM,32.0,30.2,93,29.88,10.0,NE,10.4,-,N/A,,Scattered Clouds,50,2013-02-07 10:59:00
3:08 AM,32.0,30.2,93,29.87,10.0,ENE,10.4,-,N/A,,Mostly Cloudy,60,2013-02-07 11:08:00
3:58 AM,31.8,29.8,92,29.93,10.0,NE,6.9,-,0.00,,Mostly Cloudy,40,2013-02-07 11:58:00
4:46 AM,32.0,30.2,93,29.88,10.0,NW,6.9,-,N/A,,Mostly Cloudy,320,2013-02-07 12:46:00
4:58 AM,32.9,29.8,88,29.95,10.0,North,5.8,-,0.00,,Mostly Cloudy,10,2013-02-07 12:58:00
5:02 AM,32.0,30.2,93,29.88,10.0,NNE,6.9,-,N/A,,Scattered Clouds,20,2013-02-07 13:02:00
5:53 AM,32.0,30.2,93,29.87,10.0,NE,8.1,-,N/A,,Mostly Cloudy,40,2013-02-07 13:53:00
5:58 AM,33.3,30.4,89,29.94,10.0,NE,9.2,-,0.00,,Mostly Cloudy,40,2013-02-07 13:58:00
6:02 AM,32.0,30.2,93,29.87,10.0,NE,9.2,-,N/A,,Mostly Cloudy,50,2013-02-07 14:02:00
6:58 AM,32.7,30.7,92,29.94,10.0,NE,10.4,-,0.00,,Mostly Cloudy,40,2013-02-07 14:58:00
7:58 AM,33.8,30.7,89,29.97,10.0,East,3.5,-,N/A,,Mostly Cloudy,80,2013-02-07 15:58:00
8:00 AM,32.0,32.0,100,29.90,10.0,East,4.6,-,N/A,,Mostly Cloudy,80,2013-02-07 16:00:00
8:20 AM,33.8,32.0,93,29.91,10.0,SSE,5.8,-,N/A,Snow,Light Snow,160,2013-02-07 16:20:00
8:58 AM,33.4,32.2,95,29.99,10.0,Calm,Calm,-,0.01,Snow,Light Snow,0,2013-02-07 16:58:00
9:18 AM,32.0,32.0,100,29.91,10.0,South,1.2,-,N/A,Rain,Light Rain,170,2013-02-07 17:18:00
9:35 AM,33.8,32.0,93,29.90,10.0,NE,5.8,-,N/A,,Mostly Cloudy,50,2013-02-07 17:35:00
9:58 AM,34.7,33.6,96,29.97,10.0,NE,5.8,-,0.00,,Overcast,50,2013-02-07 17:58:00
10:58 AM,37.4,33.8,87,29.97,10.0,ESE,4.6,-,N/A,,Overcast,120,2013-02-07 18:58:00
11:30 AM,39.2,33.8,81,29.91,10.0,SSE,6.9,-,N/A,,Mostly Cloudy,150,2013-02-07 19:30:00
11:48 AM,39.2,33.8,81,29.91,10.0,SSE,4.6,-,N/A,,Mostly Cloudy,160,2013-02-07 19:48:00
11:58 AM,39.2,34.0,82,29.97,10.0,South,6.9,-,0.00,,Overcast,170,2013-02-07 19:58:00
12:23 PM,39.2,32.0,75,29.90,10.0,SSW,6.9,-,N/A,,Overcast,200,2013-02-07 20:23:00
12:28 PM,39.2,32.0,75,29.90,10.0,South,8.1,-,N/A,,Overcast,190,2013-02-07 20:28:00
12:33 PM,39.2,32.0,75,29.90,10.0,SSW,6.9,-,N/A,,Overcast,200,2013-02-07 20:33:00
12:40 PM,39.2,32.0,75,29.90,10.0,SW,8.1,-,N/A,,Overcast,220,2013-02-07 20:40:00
12:55 PM,39.2,32.0,75,29.90,10.0,SW,9.2,-,N/A,,Overcast,230,2013-02-07 20:55:00
12:57 PM,39.2,32.0,75,29.90,10.0,SW,10.4,-,N/A,,Overcast,230,2013-02-07 20:57:00
12:58 PM,40.1,32.9,75,29.96,10.0,SW,10.4,-,0.00,,Overcast,230,2013-02-07 20:58:00
1:03 PM,39.2,32.0,75,29.90,10.0,SW,10.4,-,N/A,,Overcast,230,2013-02-07 21:03:00
1:12 PM,37.4,32.0,81,29.90,10.0,SW,11.5,-,N/A,,Overcast,230,2013-02-07 21:12:00
1:13 PM,37.4,32.0,81,29.90,10.0,SW,10.4,-,N/A,,Overcast,220,2013-02-07 21:13:00
1:23 PM,37.4,32.0,81,29.90,10.0,SW,8.1,-,N/A,,Overcast,220,2013-02-07 21:23:00
1:58 PM,38.1,32.4,80,29.96,10.0,WSW,8.1,-,0.00,,Partly Cloudy,240,2013-02-07 21:58:00
2:58 PM,37.2,33.1,85,29.97,10.0,WSW,6.9,-,N/A,,Overcast,240,2013-02-07 22:58:00
3:58 PM,36.1,32.7,87,29.99,10.0,SW,3.5,-,N/A,,Overcast,220,2013-02-07 23:58:00
4:18 PM,35.6,32.0,87,29.92,10.0,SSW,2.3,-,N/A,,Overcast,210,2013-02-08 00:18:00
4:58 PM,36.1,32.5,87,30.00,10.0,SSW,4.6,-,N/A,,Overcast,210,2013-02-08 00:58:00
5:13 PM,35.6,32.0,87,29.93,10.0,SSW,4.6,-,N/A,,Overcast,200,2013-02-08 01:13:00
5:23 PM,35.6,32.0,87,29.93,10.0,SSW,4.6,-,N/A,Rain,Light Rain,200,2013-02-08 01:23:00
5:30 PM,35.6,32.0,87,29.93,10.0,SSW,5.8,-,N/A,,Overcast,210,2013-02-08 01:30:00
5:58 PM,34.7,32.7,92,30.01,10.0,SSW,4.6,-,0.00,,Overcast,210,2013-02-08 01:58:00
6:10 PM,35.6,32.0,87,29.94,10.0,SSW,3.5,-,N/A,,Overcast,210,2013-02-08 02:10:00
6:15 PM,35.6,32.0,87,29.94,10.0,SW,3.5,-,N/A,,Overcast,220,2013-02-08 02:15:00
6:25 PM,33.8,32.0,93,29.94,10.0,WSW,3.5,-,N/A,,Mostly Cloudy,240,2013-02-08 02:25:00
6:35 PM,33.8,32.0,93,29.94,10.0,SSW,2.3,-,N/A,,Mostly Cloudy,210,2013-02-08 02:35:00
6:40 PM,33.8,32.0,93,29.94,10.0,Variable,1.2,-,N/A,,Mostly Cloudy,0,2013-02-08 02:40:00
6:45 PM,33.8,32.0,93,29.94,10.0,East,3.5,-,N/A,,Light Drizzle,100,2013-02-08 02:45:00
6:48 PM,33.8,32.0,93,29.95,10.0,ESE,3.5,-,N/A,,Overcast,110,2013-02-08 02:48:00
6:58 PM,34.3,32.5,93,30.02,10.0,SE,2.3,-,0.00,,Overcast,140,2013-02-08 02:58:00
7:28 PM,33.8,32.0,93,29.95,10.0,SSW,2.3,-,N/A,,Mostly Cloudy,200,2013-02-08 03:28:00
7:33 PM,33.8,32.0,93,29.95,10.0,South,2.3,-,N/A,,Mostly Cloudy,190,2013-02-08 03:33:00
7:48 PM,33.8,32.0,93,29.96,10.0,SSW,2.3,-,N/A,,Scattered Clouds,200,2013-02-08 03:48:00
7:53 PM,33.8,32.0,93,29.96,10.0,SSW,2.3,-,N/A,,Mostly Cloudy,210,2013-02-08 03:53:00
7:58 PM,34.0,32.7,95,30.03,10.0,SW,3.5,-,N/A,,Mostly Cloudy,220,2013-02-08 03:58:00
7:59 PM,33.8,32.0,93,29.96,10.0,SW,3.5,-,N/A,,Mostly Cloudy,220,2013-02-08 03:59:00
8:02 PM,33.8,32.0,93,29.96,10.0,SW,3.5,-,N/A,,Mostly Cloudy,220,2013-02-08 04:02:00
8:12 PM,33.8,32.0,93,29.96,10.0,SW,3.5,-,N/A,,Mostly Cloudy,220,2013-02-08 04:12:00
8:17 PM,33.8,32.0,93,29.96,10.0,SW,3.5,-,N/A,,Overcast,220,2013-02-08 04:17:00
8:30 PM,32.0,32.0,100,29.96,10.0,SSW,4.6,-,N/A,,Overcast,210,2013-02-08 04:30:00
8:50 PM,32.0,32.0,100,29.97,10.0,SSW,4.6,-,N/A,,Overcast,210,2013-02-08 04:50:00
8:58 PM,33.4,32.7,97,30.04,10.0,SSW,4.6,-,0.00,,Mostly Cloudy,200,2013-02-08 04:58:00
9:58 PM,33.1,32.4,97,30.05,10.0,SSW,4.6,-,N/A,,Scattered Clouds,210,2013-02-08 05:58:00
10:02 PM,32.0,32.0,100,29.98,10.0,SSW,4.6,-,N/A,,Scattered Clouds,210,2013-02-08 06:02:00
10:32 PM,32.0,32.0,100,29.98,10.0,SSW,4.6,-,N/A,,Overcast,200,2013-02-08 06:32:00
10:37 PM,32.0,32.0,100,29.98,10.0,SSW,3.5,-,N/A,,Overcast,200,2013-02-08 06:37:00
10:52 PM,32.0,32.0,100,29.99,10.0,SSW,3.5,-,N/A,,Overcast,200,2013-02-08 06:52:00
10:57 PM,32.0,32.0,100,29.99,10.0,SSW,3.5,-,N/A,,Overcast,210,2013-02-08 06:57:00
10:58 PM,32.9,32.4,98,30.05,10.0,SSW,3.5,-,N/A,,Overcast,210,2013-02-08 06:58:00
11:58 PM,32.4,32.2,99,30.06,10.0,South,3.5,-,N/A,,Overcast,190,2013-02-08 07:58:00